createdAt,value
2018-12-20T00:00:46.407Z,94.13
2018-12-20T00:01:47.140Z,93.94
2018-12-20T00:02:47.140Z,94.13
2018-12-20T00:03:46.158Z,94.04
2018-12-20T00:04:46.081Z,93.75
2018-12-20T00:05:46.642Z,93.84
2018-12-20T00:06:46.646Z,93.84
2018-12-20T00:07:46.724Z,94.13
2018-12-20T00:08:46.696Z,94.32
2018-12-20T00:09:45.706Z,94.51
2018-12-20T00:10:45.572Z,94.51
2018-12-20T00:11:45.634Z,94.98
2018-12-20T00:12:46.200Z,95.55
2018-12-20T00:13:45.270Z,94.70
2018-12-20T00:14:45.180Z,95.26
2018-12-20T00:15:45.232Z,94.89
2018-12-20T00:16:45.041Z,94.70
2018-12-20T00:17:44.971Z,94.79
2018-12-20T00:18:44.777Z,94.04
2018-12-20T00:19:44.747Z,94.70
2018-12-20T00:20:44.714Z,94.79
2018-12-20T00:21:45.146Z,95.07
2018-12-20T00:22:44.608Z,94.70
2018-12-20T00:23:44.526Z,94.89
2018-12-20T00:24:45.161Z,95.36
2018-12-20T00:25:44.238Z,94.89
2018-12-20T00:26:44.698Z,95.55
2018-12-20T00:27:44.665Z,95.26
2018-12-20T00:28:43.959Z,94.98
2018-12-20T00:29:44.041Z,94.79
2018-12-20T00:30:43.856Z,94.89
2018-12-20T00:31:43.707Z,94.79
2018-12-20T00:32:43.737Z,95.26
2018-12-20T00:33:43.727Z,95.45
2018-12-20T00:34:43.474Z,95.55
2018-12-20T00:35:43.353Z,95.64
2018-12-20T00:36:43.299Z,95.07
2018-12-20T00:37:43.210Z,95.26
2018-12-20T00:38:43.152Z,95.07
2018-12-20T00:39:42.993Z,95.07
2018-12-20T00:40:43.650Z,94.70
2018-12-20T00:41:42.826Z,94.79
2018-12-20T00:42:42.735Z,95.36
2018-12-20T00:43:42.755Z,95.64
2018-12-20T00:44:42.584Z,94.79
2018-12-20T00:45:42.587Z,94.79
2018-12-20T00:46:43.298Z,94.79
2018-12-20T00:47:42.380Z,94.98
2018-12-20T00:48:42.339Z,95.07
2018-12-20T00:49:42.209Z,94.51
2018-12-20T00:50:42.043Z,94.60
2018-12-20T00:51:42.005Z,94.32
2018-12-20T00:52:41.865Z,94.70
2018-12-20T00:53:41.775Z,94.32
2018-12-20T00:54:41.689Z,94.79
2018-12-20T00:55:41.707Z,94.60
2018-12-20T00:56:41.649Z,94.70
2018-12-20T00:57:41.525Z,94.60
2018-12-20T00:58:41.468Z,94.13
2018-12-20T00:59:42.152Z,94.51
2018-12-20T01:00:41.160Z,94.42
2018-12-20T01:01:41.146Z,94.23
2018-12-20T01:02:40.934Z,94.98
2018-12-20T01:03:42.680Z,94.98
2018-12-20T01:04:40.832Z,94.79
2018-12-20T01:05:40.753Z,94.79
2018-12-20T01:06:41.243Z,94.60
2018-12-20T01:07:40.552Z,94.51
2018-12-20T01:08:40.459Z,95.07
2018-12-20T01:09:40.374Z,94.79
2018-12-20T01:10:40.290Z,94.70
2018-12-20T01:11:40.207Z,94.98
2018-12-20T01:12:40.117Z,94.98
2018-12-20T01:13:40.273Z,94.98
2018-12-20T01:14:45.327Z,94.32
2018-12-20T01:15:39.976Z,94.89
2018-12-20T01:16:40.791Z,94.51
2018-12-20T01:17:39.784Z,94.70
2018-12-20T01:18:39.622Z,94.89
2018-12-20T01:19:40.156Z,95.17
2018-12-20T01:20:39.519Z,94.51
2018-12-20T01:21:39.340Z,94.89
2018-12-20T01:22:39.251Z,94.70
2018-12-20T01:23:39.165Z,95.07
2018-12-20T01:24:39.295Z,94.13
2018-12-20T01:25:39.083Z,94.23
2018-12-20T01:26:38.892Z,94.04
2018-12-20T01:27:38.841Z,94.23
2018-12-20T01:28:38.841Z,94.23
2018-12-20T01:29:39.161Z,94.13
2018-12-20T01:30:38.573Z,94.23
2018-12-20T01:31:38.517Z,94.13
2018-12-20T01:32:39.315Z,94.51
2018-12-20T01:33:38.306Z,94.79
2018-12-20T01:34:38.299Z,95.07
2018-12-20T01:35:38.139Z,95.64
2018-12-20T01:36:38.011Z,95.07
2018-12-20T01:37:37.931Z,95.83
2018-12-20T01:38:37.864Z,95.26
2018-12-20T01:39:38.760Z,94.79
2018-12-20T01:40:38.658Z,95.26
2018-12-20T01:41:37.733Z,94.70
2018-12-20T01:42:37.491Z,94.70
2018-12-20T01:43:37.453Z,94.89
2018-12-20T01:44:38.159Z,94.70
2018-12-20T01:45:37.344Z,94.70
2018-12-20T01:46:37.137Z,94.70
2018-12-20T01:47:37.127Z,94.70
2018-12-20T01:48:37.833Z,94.79
2018-12-20T01:49:36.841Z,94.70
2018-12-20T01:50:36.832Z,94.79
2018-12-20T01:51:36.724Z,94.23
2018-12-20T01:52:36.639Z,94.79
2018-12-20T01:53:36.497Z,94.70
2018-12-20T01:54:36.467Z,94.23
2018-12-20T01:55:36.483Z,93.56
2018-12-20T01:56:37.161Z,93.94
2018-12-20T01:57:38.187Z,93.65
2018-12-20T01:58:36.251Z,93.37
2018-12-20T01:59:36.842Z,93.27
2018-12-20T02:00:35.913Z,92.99
2018-12-20T02:01:35.825Z,93.37
2018-12-20T02:02:35.765Z,93.56
2018-12-20T02:03:36.382Z,93.65
2018-12-20T02:04:35.563Z,92.61
2018-12-20T02:05:35.690Z,92.24
2018-12-20T02:06:36.167Z,92.24
2018-12-20T02:07:35.307Z,92.14
2018-12-20T02:08:35.219Z,91.95
2018-12-20T02:09:35.665Z,91.10
2018-12-20T02:10:35.143Z,91.67
2018-12-20T02:11:34.996Z,91.19
2018-12-20T02:12:34.862Z,91.95
2018-12-20T02:13:34.786Z,91.67
2018-12-20T02:14:34.693Z,91.67
2018-12-20T02:15:34.637Z,91.10
2018-12-20T02:16:34.540Z,91.57
2018-12-20T02:17:34.440Z,91.57
2018-12-20T02:18:36.253Z,91.19
2018-12-20T02:19:34.256Z,90.81
2018-12-20T02:20:34.172Z,91.00
2018-12-20T02:21:34.147Z,90.72
2018-12-20T02:22:34.050Z,91.10
2018-12-20T02:23:34.024Z,90.81
2018-12-20T02:24:35.784Z,91.48
2018-12-20T02:25:33.729Z,91.57
2018-12-20T02:26:33.659Z,91.48
2018-12-20T02:27:33.709Z,91.38
2018-12-20T02:28:33.484Z,91.10
2018-12-20T02:29:33.384Z,91.00
2018-12-20T02:30:33.296Z,91.29
2018-12-20T02:31:34.211Z,91.57
2018-12-20T02:32:33.117Z,91.57
2018-12-20T02:33:33.032Z,91.29
2018-12-20T02:34:32.981Z,91.38
2018-12-20T02:35:32.980Z,91.00
2018-12-20T02:36:32.909Z,90.81
2018-12-20T02:37:32.845Z,90.72
2018-12-20T02:38:32.620Z,90.91
2018-12-20T02:39:33.398Z,91.19
2018-12-20T02:40:32.473Z,90.25
2018-12-20T02:41:32.448Z,91.00
2018-12-20T02:42:33.382Z,91.38
2018-12-20T02:43:32.406Z,90.72
2018-12-20T02:44:32.075Z,90.25
2018-12-20T02:45:32.700Z,90.34
2018-12-20T02:46:32.668Z,90.72
2018-12-20T02:47:32.675Z,90.25
2018-12-20T02:48:31.726Z,90.44
2018-12-20T02:49:32.335Z,90.53
2018-12-20T02:50:31.545Z,91.10
2018-12-20T02:51:31.452Z,90.91
2018-12-20T02:52:31.518Z,90.63
2018-12-20T02:53:32.199Z,91.38
2018-12-20T02:54:31.281Z,91.29
2018-12-20T02:55:31.132Z,90.81
2018-12-20T02:56:31.047Z,90.34
2018-12-20T02:57:30.927Z,90.91
2018-12-20T02:58:31.672Z,90.91
2018-12-20T02:59:30.842Z,90.91
2018-12-20T03:00:30.834Z,90.81
2018-12-20T03:01:30.589Z,90.63
2018-12-20T03:02:30.650Z,90.91
2018-12-20T03:03:30.402Z,90.53
2018-12-20T03:04:30.319Z,90.25
2018-12-20T03:05:30.423Z,90.25
2018-12-20T03:06:30.147Z,91.29
2018-12-20T03:07:30.048Z,91.48
2018-12-20T03:08:29.972Z,91.38
2018-12-20T03:09:29.885Z,90.15
2018-12-20T03:10:29.888Z,91.19
2018-12-20T03:11:29.943Z,90.44
2018-12-20T03:12:29.752Z,90.25
2018-12-20T03:13:29.761Z,90.25
2018-12-20T03:14:29.455Z,90.34
2018-12-20T03:15:29.534Z,89.58
2018-12-20T03:16:29.279Z,90.25
2018-12-20T03:17:29.434Z,89.68
2018-12-20T03:18:29.139Z,90.34
2018-12-20T03:19:29.000Z,90.15
2018-12-20T03:20:28.946Z,90.15
2018-12-20T03:21:29.001Z,90.53
2018-12-20T03:22:28.791Z,90.72
2018-12-20T03:23:28.909Z,90.25
2018-12-20T03:24:30.318Z,90.15
2018-12-20T03:25:31.454Z,90.53
2018-12-20T03:26:28.407Z,90.25
2018-12-20T03:27:28.670Z,90.44
2018-12-20T03:28:28.375Z,90.25
2018-12-20T03:29:28.166Z,89.87
2018-12-20T03:30:28.058Z,89.49
2018-12-20T03:31:27.963Z,89.58
2018-12-20T03:32:28.684Z,89.58
2018-12-20T03:33:28.037Z,89.58
2018-12-20T03:34:27.876Z,89.49
2018-12-20T03:35:27.620Z,89.58
2018-12-20T03:36:30.176Z,89.58
2018-12-20T03:37:27.439Z,89.58
2018-12-20T03:38:27.341Z,89.49
2018-12-20T03:39:27.254Z,89.58
2018-12-20T03:40:27.171Z,89.58
2018-12-20T03:41:27.085Z,89.68
2018-12-20T03:42:27.042Z,89.39
2018-12-20T03:43:26.969Z,89.11
2018-12-20T03:44:26.945Z,89.49
2018-12-20T03:45:29.046Z,89.58
2018-12-20T03:46:26.826Z,88.54
2018-12-20T03:47:26.587Z,88.64
2018-12-20T03:48:26.468Z,89.30
2018-12-20T03:49:27.338Z,89.49
2018-12-20T03:50:27.197Z,89.39
2018-12-20T03:51:26.350Z,89.01
2018-12-20T03:52:26.315Z,88.35
2018-12-20T03:53:26.399Z,87.78
2018-12-20T03:54:26.016Z,87.50
2018-12-20T03:55:26.024Z,88.45
2018-12-20T03:56:25.766Z,87.98
2018-12-20T03:57:26.687Z,88.35
2018-12-20T03:58:25.787Z,88.26
2018-12-20T03:59:25.446Z,87.69
2018-12-20T04:00:25.468Z,87.59
2018-12-20T04:01:25.572Z,87.69
2018-12-20T04:02:25.422Z,87.21
2018-12-20T04:03:25.296Z,87.02
2018-12-20T04:04:25.176Z,87.02
2018-12-20T04:05:25.762Z,86.74
2018-12-20T04:06:25.776Z,87.12
2018-12-20T04:07:25.183Z,86.93
2018-12-20T04:08:24.702Z,87.78
2018-12-20T04:09:24.766Z,87.69
2018-12-20T04:10:24.895Z,87.21
2018-12-20T04:11:24.496Z,87.78
2018-12-20T04:12:25.180Z,87.40
2018-12-20T04:13:24.510Z,87.50
2018-12-20T04:14:24.136Z,87.98
2018-12-20T04:15:24.137Z,87.78
2018-12-20T04:16:24.012Z,87.88
2018-12-20T04:17:24.691Z,87.50
2018-12-20T04:18:23.914Z,87.98
2018-12-20T04:19:23.750Z,87.50
2018-12-20T04:20:23.671Z,87.21
2018-12-20T04:21:23.613Z,87.12
2018-12-20T04:22:23.799Z,87.69
2018-12-20T04:23:23.404Z,87.59
2018-12-20T04:24:23.566Z,87.59
2018-12-20T04:25:23.232Z,87.88
2018-12-20T04:26:23.136Z,87.78
2018-12-20T04:27:23.051Z,87.78
2018-12-20T04:28:23.691Z,87.50
2018-12-20T04:29:23.022Z,87.88
2018-12-20T04:30:22.960Z,87.59
2018-12-20T04:31:22.703Z,87.78
2018-12-20T04:32:22.611Z,87.78
2018-12-20T04:33:22.526Z,87.78
2018-12-20T04:34:23.193Z,87.21
2018-12-20T04:35:22.357Z,86.93
2018-12-20T04:36:23.360Z,87.02
2018-12-20T04:37:22.212Z,86.74
2018-12-20T04:38:22.127Z,86.74
2018-12-20T04:39:22.107Z,87.31
2018-12-20T04:40:21.998Z,87.98
2018-12-20T04:41:21.953Z,87.98
2018-12-20T04:42:22.858Z,87.02
2018-12-20T04:43:21.656Z,87.02
2018-12-20T04:44:22.545Z,87.21
2018-12-20T04:45:22.189Z,87.40
2018-12-20T04:46:21.485Z,86.55
2018-12-20T04:47:21.415Z,86.74
2018-12-20T04:48:21.314Z,86.46
2018-12-20T04:49:21.125Z,87.50
2018-12-20T04:50:21.033Z,87.78
2018-12-20T04:51:21.103Z,88.07
2018-12-20T04:52:21.122Z,87.59
2018-12-20T04:53:20.779Z,87.40
2018-12-20T04:54:20.854Z,87.12
2018-12-20T04:55:20.836Z,87.21
2018-12-20T04:56:21.332Z,87.02
2018-12-20T04:57:20.431Z,86.93
2018-12-20T04:58:20.354Z,86.74
2018-12-20T04:59:20.259Z,86.93
2018-12-20T05:00:20.187Z,87.02
2018-12-20T05:01:20.937Z,86.93
2018-12-20T05:02:20.094Z,86.93
2018-12-20T05:03:19.955Z,86.46
2018-12-20T05:04:20.093Z,86.83
2018-12-20T05:05:19.766Z,86.46
2018-12-20T05:06:19.635Z,87.12
2018-12-20T05:07:20.379Z,86.55
2018-12-20T05:08:19.751Z,86.65
2018-12-20T05:09:19.377Z,87.50
2018-12-20T05:10:20.298Z,87.59
2018-12-20T05:11:20.340Z,86.74
2018-12-20T05:12:19.695Z,86.74
2018-12-20T05:13:19.387Z,86.46
2018-12-20T05:14:19.694Z,86.46
2018-12-20T05:15:19.797Z,86.46
2018-12-20T05:16:18.763Z,85.99
2018-12-20T05:17:18.719Z,84.56
2018-12-20T05:18:26.098Z,85.32
2018-12-20T05:20:22.603Z,84.56
2018-12-20T05:21:22.269Z,85.04
2018-12-20T05:22:22.156Z,85.13
2018-12-20T05:23:22.104Z,85.42
2018-12-20T05:24:21.993Z,84.75
2018-12-20T05:25:21.965Z,85.04
2018-12-20T05:26:22.151Z,84.94
2018-12-20T05:27:21.776Z,85.61
2018-12-20T05:28:22.449Z,85.04
2018-12-20T05:29:22.524Z,84.47
2018-12-20T05:30:22.477Z,84.56
2018-12-20T05:31:21.609Z,84.66
2018-12-20T05:32:21.985Z,85.70
2018-12-20T05:33:21.425Z,85.89
2018-12-20T05:34:21.217Z,85.70
2018-12-20T05:35:21.082Z,85.99
2018-12-20T05:36:21.176Z,86.83
2018-12-20T05:37:21.110Z,86.74
2018-12-20T05:38:21.486Z,86.46
2018-12-20T05:39:20.792Z,87.59
2018-12-20T05:40:20.858Z,87.59
2018-12-20T05:41:20.554Z,87.88
2018-12-20T05:42:20.471Z,88.26
2018-12-20T05:43:20.393Z,88.45
2018-12-20T05:44:20.422Z,88.26
2018-12-20T05:45:20.981Z,87.88
2018-12-20T05:46:20.097Z,88.07
2018-12-20T05:47:20.153Z,87.98
2018-12-20T05:48:20.060Z,87.78
2018-12-20T05:49:19.823Z,86.74
2018-12-20T05:50:20.454Z,87.02
2018-12-20T05:51:19.827Z,87.21
2018-12-20T05:52:19.606Z,87.02
2018-12-20T05:53:22.579Z,87.31
2018-12-20T05:54:19.541Z,87.12
2018-12-20T05:55:24.141Z,86.93
2018-12-20T05:56:19.399Z,86.83
2018-12-20T05:57:19.161Z,86.55
2018-12-20T05:58:19.071Z,86.93
2018-12-20T05:59:18.980Z,87.21
2018-12-20T06:00:19.214Z,87.12
2018-12-20T06:01:18.807Z,86.74
2018-12-20T06:02:19.455Z,87.02
2018-12-20T06:03:18.883Z,87.40
2018-12-20T06:04:18.537Z,86.74
2018-12-20T06:05:19.681Z,86.65
2018-12-20T06:06:18.504Z,86.18
2018-12-20T06:07:18.213Z,86.65
2018-12-20T06:08:18.192Z,86.27
2018-12-20T06:09:20.152Z,85.89
2018-12-20T06:10:18.010Z,85.89
2018-12-20T06:11:18.453Z,85.89
2018-12-20T06:12:18.111Z,86.08
2018-12-20T06:13:17.804Z,85.89
2018-12-20T06:14:17.761Z,86.27
2018-12-20T06:15:17.581Z,85.70
2018-12-20T06:16:17.650Z,85.70
2018-12-20T06:17:17.572Z,85.70
2018-12-20T06:18:17.323Z,85.61
2018-12-20T06:19:17.423Z,86.74
2018-12-20T06:20:17.358Z,86.93
2018-12-20T06:21:19.156Z,86.46
2018-12-20T06:22:17.035Z,85.89
2018-12-20T06:23:17.460Z,86.93
2018-12-20T06:24:16.788Z,87.40
2018-12-20T06:25:17.458Z,87.50
2018-12-20T06:26:16.550Z,86.93
2018-12-20T06:27:16.459Z,86.46
2018-12-20T06:28:16.380Z,85.04
2018-12-20T06:29:16.283Z,84.85
2018-12-20T06:30:16.198Z,84.94
2018-12-20T06:31:16.154Z,84.66
2018-12-20T06:32:16.021Z,84.75
2018-12-20T06:33:15.937Z,84.47
2018-12-20T06:34:15.875Z,84.38
2018-12-20T06:35:15.759Z,85.32
2018-12-20T06:36:15.716Z,85.99
2018-12-20T06:37:15.585Z,86.46
2018-12-20T06:38:15.495Z,86.08
2018-12-20T06:39:15.408Z,85.51
2018-12-20T06:40:16.413Z,85.89
2018-12-20T06:41:15.232Z,85.80
2018-12-20T06:42:15.147Z,85.04
2018-12-20T06:43:15.059Z,85.04
2018-12-20T06:44:14.970Z,85.70
2018-12-20T06:45:14.887Z,85.80
2018-12-20T06:46:21.050Z,85.89
2018-12-20T06:47:14.707Z,85.89
2018-12-20T06:48:14.620Z,85.99
2018-12-20T06:49:14.533Z,85.04
2018-12-20T06:50:14.445Z,85.42
2018-12-20T06:51:14.357Z,85.32
2018-12-20T06:52:14.272Z,85.32
2018-12-20T06:53:14.218Z,85.70
2018-12-20T06:54:14.095Z,84.85
2018-12-20T06:55:14.008Z,85.04
2018-12-20T06:56:13.921Z,85.42
2018-12-20T06:57:13.830Z,85.32
2018-12-20T06:58:13.743Z,85.13
2018-12-20T06:59:13.661Z,85.13
2018-12-20T07:00:13.571Z,84.66
2018-12-20T07:01:13.485Z,84.56
2018-12-20T07:02:13.411Z,84.75
2018-12-20T07:03:13.307Z,84.47
2018-12-20T07:04:13.220Z,84.56
2018-12-20T07:05:13.135Z,85.13
2018-12-20T07:06:13.043Z,85.42
2018-12-20T07:07:12.957Z,85.13
2018-12-20T07:08:12.878Z,84.94
2018-12-20T07:09:12.784Z,84.66
2018-12-20T07:10:12.698Z,84.56
2018-12-20T07:11:12.677Z,84.47
2018-12-20T07:12:12.589Z,85.04
2018-12-20T07:13:12.509Z,84.94
2018-12-20T07:14:12.407Z,85.04
2018-12-20T07:15:12.970Z,85.23
2018-12-20T07:16:12.336Z,85.70
2018-12-20T07:17:12.151Z,85.42
2018-12-20T07:18:12.064Z,85.04
2018-12-20T07:19:11.980Z,85.89
2018-12-20T07:20:11.886Z,86.36
2018-12-20T07:21:11.812Z,85.80
2018-12-20T07:22:12.463Z,85.80
2018-12-20T07:23:11.623Z,85.51
2018-12-20T07:24:11.536Z,85.42
2018-12-20T07:25:11.975Z,85.13
2018-12-20T07:26:11.359Z,85.13
2018-12-20T07:27:11.969Z,85.13
2018-12-20T07:28:11.186Z,84.94
2018-12-20T07:29:11.095Z,84.94
2018-12-20T07:30:10.974Z,84.66
2018-12-20T07:31:12.475Z,85.23
2018-12-20T07:32:10.834Z,85.04
2018-12-20T07:33:10.748Z,84.94
2018-12-20T07:34:10.662Z,84.75
2018-12-20T07:35:10.572Z,85.42
2018-12-20T07:36:10.486Z,84.75
2018-12-20T07:37:10.394Z,84.66
2018-12-20T07:38:10.315Z,84.94
2018-12-20T07:39:10.969Z,85.23
2018-12-20T07:40:10.139Z,85.80
2018-12-20T07:41:10.011Z,85.51
2018-12-20T07:42:09.958Z,84.94
2018-12-20T07:43:09.877Z,84.94
2018-12-20T07:44:09.794Z,85.32
2018-12-20T07:45:09.708Z,85.80
2018-12-20T07:46:09.601Z,86.08
2018-12-20T07:47:09.520Z,85.04
2018-12-20T07:48:09.448Z,85.23
2018-12-20T07:49:09.979Z,85.70
2018-12-20T07:50:09.259Z,85.32
2018-12-20T07:51:09.190Z,85.70
2018-12-20T07:52:09.091Z,85.51
2018-12-20T07:53:09.005Z,85.70
2018-12-20T07:54:09.474Z,85.80
2018-12-20T07:55:08.831Z,85.89
2018-12-20T07:56:08.731Z,85.70
2018-12-20T07:57:08.659Z,85.99
2018-12-20T07:58:08.572Z,86.08
2018-12-20T07:59:12.982Z,85.23
2018-12-20T08:00:08.399Z,85.80
2018-12-20T08:01:08.311Z,85.80
2018-12-20T08:02:08.971Z,85.89
2018-12-20T08:03:08.125Z,85.70
2018-12-20T08:04:08.038Z,85.70
2018-12-20T08:05:07.953Z,85.89
2018-12-20T08:06:08.475Z,85.89
2018-12-20T08:07:07.779Z,85.80
2018-12-20T08:08:08.475Z,86.08
2018-12-20T08:09:07.649Z,85.89
2018-12-20T08:10:07.510Z,86.08
2018-12-20T08:11:07.424Z,86.08
2018-12-20T08:12:07.981Z,86.46
2018-12-20T08:13:07.986Z,86.74
2018-12-20T08:14:07.169Z,86.55
2018-12-20T08:15:07.185Z,86.55
2018-12-20T08:16:06.994Z,86.55
2018-12-20T08:17:06.902Z,86.55
2018-12-20T08:18:07.481Z,86.55
2018-12-20T08:19:07.467Z,86.74
2018-12-20T08:20:06.636Z,88.07
2018-12-20T08:21:07.478Z,87.50
2018-12-20T08:22:06.471Z,87.88
2018-12-20T08:23:06.381Z,87.02
2018-12-20T08:24:06.292Z,87.21
2018-12-20T08:25:06.978Z,86.74
2018-12-20T08:26:06.123Z,86.08
2018-12-20T08:27:06.035Z,85.51
2018-12-20T08:28:06.439Z,85.42
2018-12-20T08:29:06.481Z,85.23
2018-12-20T08:30:05.769Z,85.04
2018-12-20T08:31:05.687Z,85.89
2018-12-20T08:32:05.608Z,85.70
2018-12-20T08:33:05.461Z,85.70
2018-12-20T08:34:06.015Z,85.89
2018-12-20T08:35:05.334Z,85.13
2018-12-20T08:36:05.255Z,85.23
2018-12-20T08:37:05.158Z,85.04
2018-12-20T08:38:05.074Z,85.51
2018-12-20T08:39:04.993Z,84.94
2018-12-20T08:40:04.826Z,84.56
2018-12-20T08:41:04.744Z,84.66
2018-12-20T08:42:04.654Z,84.94
2018-12-20T08:43:04.566Z,84.75
2018-12-20T08:44:04.478Z,84.56
2018-12-20T08:45:04.393Z,84.70
2018-12-20T08:46:04.302Z,84.56
2018-12-20T08:47:04.217Z,84.47
2018-12-20T08:48:04.130Z,84.56
2018-12-20T08:49:04.043Z,84.89
2018-12-20T08:50:03.957Z,85.46
2018-12-20T08:51:03.869Z,85.08
2018-12-20T08:52:03.781Z,84.99
2018-12-20T08:53:03.705Z,85.08
2018-12-20T08:54:03.606Z,85.08
2018-12-20T08:55:03.524Z,85.55
2018-12-20T08:56:03.433Z,85.08
2018-12-20T08:57:04.433Z,85.27
2018-12-20T08:58:03.258Z,85.65
2018-12-20T08:59:03.170Z,86.03
2018-12-20T09:00:03.083Z,85.84
2018-12-20T09:01:03.000Z,85.84
2018-12-20T09:02:02.909Z,86.31
2018-12-20T09:03:02.822Z,86.50
2018-12-20T09:04:02.734Z,86.60
2018-12-20T09:05:03.075Z,86.69
2018-12-20T09:06:02.563Z,85.93
2018-12-20T09:07:02.473Z,85.93
2018-12-20T09:08:02.390Z,86.60
2018-12-20T09:09:02.305Z,86.31
2018-12-20T09:10:02.214Z,86.41
2018-12-20T09:11:02.130Z,86.41
2018-12-20T09:12:02.046Z,86.88
2018-12-20T09:13:09.318Z,86.69
2018-12-20T09:14:01.867Z,86.88
2018-12-20T09:15:01.782Z,87.07
2018-12-20T09:16:01.758Z,86.69
2018-12-20T09:17:03.089Z,86.98
2018-12-20T09:18:01.592Z,87.83
2018-12-20T09:19:01.431Z,87.26
2018-12-20T09:20:01.349Z,87.45
2018-12-20T09:21:01.257Z,86.50
2018-12-20T09:22:01.171Z,86.31
2018-12-20T09:23:01.084Z,86.50
2018-12-20T09:24:01.027Z,86.50
2018-12-20T09:25:00.910Z,86.98
2018-12-20T09:26:00.822Z,86.41
2018-12-20T09:27:00.739Z,86.12
2018-12-20T09:28:00.652Z,86.69
2018-12-20T09:29:00.565Z,86.50
2018-12-20T09:30:00.477Z,86.31
2018-12-20T09:31:00.387Z,86.79
2018-12-20T09:32:00.303Z,86.50
2018-12-20T09:33:00.220Z,86.60
2018-12-20T09:34:00.130Z,85.93
2018-12-20T09:35:00.044Z,86.03
2018-12-20T09:35:59.954Z,86.41
2018-12-20T09:36:59.868Z,86.79
2018-12-20T09:38:01.056Z,86.41
2018-12-20T09:38:59.692Z,86.50
2018-12-20T09:39:59.612Z,86.22
2018-12-20T09:40:59.520Z,86.03
2018-12-20T09:41:59.436Z,85.93
2018-12-20T09:42:59.349Z,85.93
2018-12-20T09:43:59.259Z,86.03
2018-12-20T09:44:59.175Z,85.74
2018-12-20T09:45:59.085Z,85.08
2018-12-20T09:46:59.000Z,85.08
2018-12-20T09:47:58.993Z,84.99
2018-12-20T09:48:58.828Z,84.70
2018-12-20T09:49:58.743Z,84.61
2018-12-20T09:50:58.651Z,84.61
2018-12-20T09:51:58.563Z,84.70
2018-12-20T09:52:58.496Z,85.84
2018-12-20T09:53:58.389Z,85.93
2018-12-20T09:54:58.302Z,86.12
2018-12-20T09:55:58.220Z,85.08
2018-12-20T09:56:58.132Z,85.46
2018-12-20T09:57:58.051Z,85.27
2018-12-20T09:58:57.955Z,84.51
2018-12-20T09:59:57.874Z,85.08
2018-12-20T10:00:57.831Z,85.17
2018-12-20T10:01:57.753Z,85.08
2018-12-20T10:02:57.613Z,85.27
2018-12-20T10:03:57.523Z,84.42
2018-12-20T10:04:57.442Z,84.80
2018-12-20T10:05:57.419Z,84.70
2018-12-20T10:06:57.269Z,84.80
2018-12-20T10:07:57.173Z,84.89
2018-12-20T10:08:57.096Z,84.70
2018-12-20T10:09:57.004Z,84.70
2018-12-20T10:10:56.914Z,84.51
2018-12-20T10:11:56.828Z,84.70
2018-12-20T10:12:56.744Z,84.99
2018-12-20T10:13:56.728Z,84.51
2018-12-20T10:14:56.568Z,84.32
2018-12-20T10:15:56.481Z,84.89
2018-12-20T10:16:56.468Z,84.89
2018-12-20T10:17:56.308Z,84.99
2018-12-20T10:18:56.221Z,84.04
2018-12-20T10:19:56.145Z,84.04
2018-12-20T10:20:56.069Z,84.13
2018-12-20T10:21:56.037Z,84.04
2018-12-20T10:22:55.873Z,83.56
2018-12-20T10:23:55.787Z,83.94
2018-12-20T10:24:55.702Z,83.75
2018-12-20T10:25:55.614Z,83.85
2018-12-20T10:26:55.533Z,83.56
2018-12-20T10:27:55.446Z,84.04
2018-12-20T10:28:55.359Z,84.04
2018-12-20T10:29:55.300Z,83.47
2018-12-20T10:30:55.181Z,83.47
2018-12-20T10:31:55.096Z,83.56
2018-12-20T10:32:55.047Z,83.00
2018-12-20T10:33:54.925Z,83.75
2018-12-20T10:34:54.837Z,83.66
2018-12-20T10:35:54.763Z,83.75
2018-12-20T10:36:54.668Z,83.09
2018-12-20T10:37:54.580Z,82.81
2018-12-20T10:38:54.507Z,82.71
2018-12-20T10:39:54.404Z,83.18
2018-12-20T10:40:54.318Z,82.71
2018-12-20T10:41:54.233Z,82.85
2018-12-20T10:42:54.148Z,83.00
2018-12-20T10:43:54.062Z,83.00
2018-12-20T10:44:53.974Z,82.71
2018-12-20T10:45:53.888Z,83.04
2018-12-20T10:46:53.801Z,82.71
2018-12-20T10:47:53.716Z,82.75
2018-12-20T10:48:53.627Z,83.00
2018-12-20T10:49:53.537Z,82.66
2018-12-20T10:50:53.456Z,82.37
2018-12-20T10:51:53.367Z,82.81
2018-12-20T10:52:53.284Z,82.62
2018-12-20T10:53:53.197Z,82.81
2018-12-20T10:54:53.110Z,83.56
2018-12-20T10:55:53.023Z,83.28
2018-12-20T10:56:52.937Z,83.56
2018-12-20T10:57:52.850Z,83.85
2018-12-20T10:58:52.763Z,83.28
2018-12-20T10:59:52.682Z,82.85
2018-12-20T11:00:52.597Z,83.04
2018-12-20T11:01:52.510Z,82.47
2018-12-20T11:02:52.417Z,82.94
2018-12-20T11:03:52.332Z,82.85
2018-12-20T11:04:52.288Z,82.94
2018-12-20T11:05:52.159Z,82.75
2018-12-20T11:06:52.076Z,83.04
2018-12-20T11:07:51.987Z,82.37
2018-12-20T11:08:51.912Z,82.28
2018-12-20T11:09:51.813Z,81.99
2018-12-20T11:10:51.729Z,81.99
2018-12-20T11:11:51.641Z,81.71
2018-12-20T11:12:51.561Z,81.52
2018-12-20T11:13:51.473Z,81.62
2018-12-20T11:14:51.382Z,81.52
2018-12-20T11:15:51.297Z,82.28
2018-12-20T11:16:51.232Z,82.28
2018-12-20T11:17:51.149Z,82.37
2018-12-20T11:18:58.741Z,82.37
2018-12-20T11:20:54.921Z,82.18
2018-12-20T11:21:54.745Z,82.09
2018-12-20T11:23:58.713Z,81.52
2018-12-20T11:24:58.529Z,81.24
2018-12-20T11:27:02.362Z,81.05
2018-12-20T11:28:02.262Z,81.52
2018-12-20T11:29:55.480Z,81.99
2018-12-20T11:30:55.410Z,81.99
2018-12-20T11:31:55.320Z,81.71
2018-12-20T11:32:56.110Z,81.71
2018-12-20T11:33:55.146Z,81.81
2018-12-20T11:34:55.716Z,81.43
2018-12-20T11:36:02.156Z,81.52
2018-12-20T11:37:58.795Z,81.71
2018-12-20T11:38:58.690Z,81.71
2018-12-20T11:41:04.563Z,81.62
2018-12-20T11:42:02.452Z,81.52
2018-12-20T11:43:02.317Z,81.43
2018-12-20T11:44:02.249Z,81.24
2018-12-20T11:45:02.156Z,80.76
2018-12-20T11:46:02.060Z,80.95
2018-12-20T11:47:01.979Z,81.62
2018-12-20T11:48:01.849Z,81.43
2018-12-20T11:49:01.813Z,81.99
2018-12-20T11:50:01.729Z,82.09
2018-12-20T11:51:01.636Z,83.42
2018-12-20T11:52:02.052Z,83.80
2018-12-20T11:53:01.470Z,83.42
2018-12-20T11:54:01.375Z,83.13
2018-12-20T11:55:01.242Z,83.98
2018-12-20T11:56:01.210Z,83.61
2018-12-20T11:57:01.119Z,83.61
2018-12-20T11:58:01.555Z,83.42
2018-12-20T11:59:01.549Z,83.32
2018-12-20T12:00:00.865Z,82.85
2018-12-20T12:01:00.740Z,82.66
2018-12-20T12:02:00.694Z,83.13
2018-12-20T12:03:00.616Z,83.04
2018-12-20T12:04:00.516Z,83.70
2018-12-20T12:05:00.438Z,83.61
2018-12-20T12:06:00.353Z,83.89
2018-12-20T12:07:00.266Z,83.32
2018-12-20T12:08:00.176Z,83.61
2018-12-20T12:09:02.066Z,83.70
2018-12-20T12:09:59.943Z,83.70
2018-12-20T12:10:59.851Z,83.70
2018-12-20T12:11:59.765Z,83.70
2018-12-20T12:12:59.686Z,83.89
2018-12-20T12:13:59.594Z,84.36
2018-12-20T12:14:59.511Z,84.17
2018-12-20T12:15:59.425Z,83.51
2018-12-20T12:16:59.407Z,83.13
2018-12-20T12:17:59.257Z,83.13
2018-12-20T12:18:59.168Z,82.75
2018-12-20T12:19:59.083Z,82.85
2018-12-20T12:20:58.997Z,83.13
2018-12-20T12:21:58.909Z,83.04
2018-12-20T12:22:58.823Z,82.94
2018-12-20T12:23:58.740Z,82.75
2018-12-20T12:24:58.663Z,83.04
2018-12-20T12:25:58.566Z,83.13
2018-12-20T12:26:58.486Z,83.61
2018-12-20T12:27:58.395Z,83.61
2018-12-20T12:28:58.310Z,83.98
2018-12-20T12:29:58.222Z,83.51
2018-12-20T12:30:58.140Z,83.80
2018-12-20T12:31:58.051Z,83.89
2018-12-20T12:32:57.965Z,82.66
2018-12-20T12:33:57.884Z,82.66
2018-12-20T12:34:57.795Z,82.94
2018-12-20T12:35:57.713Z,83.32
2018-12-20T12:36:57.624Z,82.94
2018-12-20T12:37:57.538Z,83.04
2018-12-20T12:38:57.458Z,83.13
2018-12-20T12:39:57.366Z,83.80
2018-12-20T12:40:57.284Z,83.32
2018-12-20T12:41:57.193Z,83.51
2018-12-20T12:42:57.111Z,83.80
2018-12-20T12:43:57.022Z,84.84
2018-12-20T12:44:56.934Z,84.65
2018-12-20T12:45:56.852Z,84.84
2018-12-20T12:46:56.819Z,84.27
2018-12-20T12:48:03.233Z,83.98
2018-12-20T12:48:56.595Z,84.08
2018-12-20T12:49:56.509Z,83.98
2018-12-20T12:50:56.423Z,84.08
2018-12-20T12:51:56.341Z,83.70
2018-12-20T12:52:56.249Z,83.70
2018-12-20T12:53:56.176Z,83.42
2018-12-20T12:54:56.079Z,82.85
2018-12-20T12:55:55.993Z,83.04
2018-12-20T12:56:55.914Z,83.04
2018-12-20T12:57:55.825Z,83.04
2018-12-20T12:58:55.739Z,82.85